sensor_id;sensor_type;location;lat;lon;timestamp;P1;durP1;ratioP1;P2;durP2;ratioP2
23990;SDS011;12205;50.600;4.608;2023-04-03T00:00:55;8.35;;;3.20;;
23990;SDS011;12205;50.600;4.608;2023-04-03T00:03:23;8.13;;;2.65;;
23990;SDS011;12205;50.600;4.608;2023-04-03T00:05:50;9.45;;;2.97;;
23990;SDS011;12205;50.600;4.608;2023-04-03T00:08:20;12.65;;;3.35;;
23990;SDS011;12205;50.600;4.608;2023-04-03T00:10:47;7.88;;;2.65;;
23990;SDS011;12205;50.600;4.608;2023-04-03T00:13:15;9.88;;;3.17;;
23990;SDS011;12205;50.600;4.608;2023-04-03T00:15:44;8.18;;;2.97;;
23990;SDS011;12205;50.600;4.608;2023-04-03T00:18:11;12.40;;;3.40;;
23990;SDS011;12205;50.600;4.608;2023-04-03T00:20:38;7.45;;;2.75;;
23990;SDS011;12205;50.600;4.608;2023-04-03T00:23:06;6.20;;;2.50;;
23990;SDS011;12205;50.600;4.608;2023-04-03T00:25:33;7.07;;;2.80;;
23990;SDS011;12205;50.600;4.608;2023-04-03T00:28:00;6.60;;;2.88;;
23990;SDS011;12205;50.600;4.608;2023-04-03T00:30:28;8.27;;;2.72;;
23990;SDS011;12205;50.600;4.608;2023-04-03T00:32:57;7.85;;;3.00;;
23990;SDS011;12205;50.600;4.608;2023-04-03T00:35:25;12.20;;;2.97;;
23990;SDS011;12205;50.600;4.608;2023-04-03T00:37:54;9.60;;;2.70;;
23990;SDS011;12205;50.600;4.608;2023-04-03T00:40:22;13.18;;;3.08;;
23990;SDS011;12205;50.600;4.608;2023-04-03T00:42:55;12.07;;;3.00;;
23990;SDS011;12205;50.600;4.608;2023-04-03T00:45:27;6.55;;;2.50;;
23990;SDS011;12205;50.600;4.608;2023-04-03T00:48:03;9.02;;;2.90;;
23990;SDS011;12205;50.600;4.608;2023-04-03T00:50:35;6.53;;;2.45;;
23990;SDS011;12205;50.600;4.608;2023-04-03T00:53:06;4.33;;;2.13;;
23990;SDS011;12205;50.600;4.608;2023-04-03T00:55:39;6.65;;;3.03;;
23990;SDS011;12205;50.600;4.608;2023-04-03T00:58:08;9.02;;;2.80;;
23990;SDS011;12205;50.600;4.608;2023-04-03T01:00:38;9.27;;;2.72;;
23990;SDS011;12205;50.600;4.608;2023-04-03T01:05:39;7.00;;;2.50;;
23990;SDS011;12205;50.600;4.608;2023-04-03T01:08:07;7.15;;;2.90;;
23990;SDS011;12205;50.600;4.608;2023-04-03T01:10:34;7.03;;;2.45;;
23990;SDS011;12205;50.600;4.608;2023-04-03T01:13:01;12.68;;;3.65;;
23990;SDS011;12205;50.600;4.608;2023-04-03T01:15:50;6.82;;;2.33;;
23990;SDS011;12205;50.600;4.608;2023-04-03T01:18:19;7.60;;;3.05;;
23990;SDS011;12205;50.600;4.608;2023-04-03T01:27:06;6.28;;;2.53;;
23990;SDS011;12205;50.600;4.608;2023-04-03T01:29:37;9.20;;;2.80;;
23990;SDS011;12205;50.600;4.608;2023-04-03T01:32:06;7.10;;;2.83;;
23990;SDS011;12205;50.600;4.608;2023-04-03T01:34:34;8.90;;;2.53;;
23990;SDS011;12205;50.600;4.608;2023-04-03T01:37:01;12.32;;;3.42;;
23990;SDS011;12205;50.600;4.608;2023-04-03T01:39:28;7.03;;;2.97;;
23990;SDS011;12205;50.600;4.608;2023-04-03T01:41:56;7.70;;;2.60;;
23990;SDS011;12205;50.600;4.608;2023-04-03T01:44:32;7.43;;;2.83;;
23990;SDS011;12205;50.600;4.608;2023-04-03T01:46:59;13.10;;;3.20;;
23990;SDS011;12205;50.600;4.608;2023-04-03T01:49:29;8.20;;;2.90;;
23990;SDS011;12205;50.600;4.608;2023-04-03T01:51:56;7.40;;;2.90;;
23990;SDS011;12205;50.600;4.608;2023-04-03T01:54:23;8.70;;;3.15;;
23990;SDS011;12205;50.600;4.608;2023-04-03T01:56:50;9.27;;;2.90;;
23990;SDS011;12205;50.600;4.608;2023-04-03T01:59:19;7.95;;;3.00;;
23990;SDS011;12205;50.600;4.608;2023-04-03T02:01:46;7.38;;;2.88;;
23990;SDS011;12205;50.600;4.608;2023-04-03T02:04:13;8.48;;;2.85;;
23990;SDS011;12205;50.600;4.608;2023-04-03T02:06:43;8.45;;;2.58;;
23990;SDS011;12205;50.600;4.608;2023-04-03T02:09:10;10.38;;;3.17;;
23990;SDS011;12205;50.600;4.608;2023-04-03T02:11:37;9.68;;;3.03;;
23990;SDS011;12205;50.600;4.608;2023-04-03T02:14:05;9.60;;;3.13;;
23990;SDS011;12205;50.600;4.608;2023-04-03T02:16:33;7.63;;;3.00;;
23990;SDS011;12205;50.600;4.608;2023-04-03T02:19:00;11.93;;;3.28;;
23990;SDS011;12205;50.600;4.608;2023-04-03T02:21:29;6.38;;;2.35;;
23990;SDS011;12205;50.600;4.608;2023-04-03T02:23:57;7.05;;;2.58;;
23990;SDS011;12205;50.600;4.608;2023-04-03T02:26:25;9.90;;;2.70;;
23990;SDS011;12205;50.600;4.608;2023-04-03T02:28:52;7.00;;;2.67;;
23990;SDS011;12205;50.600;4.608;2023-04-03T02:31:19;8.60;;;2.78;;
23990;SDS011;12205;50.600;4.608;2023-04-03T02:33:47;11.20;;;3.15;;
23990;SDS011;12205;50.600;4.608;2023-04-03T02:36:15;7.25;;;2.90;;
23990;SDS011;12205;50.600;4.608;2023-04-03T02:38:48;7.30;;;2.97;;
23990;SDS011;12205;50.600;4.608;2023-04-03T02:41:16;8.10;;;2.70;;
23990;SDS011;12205;50.600;4.608;2023-04-03T02:43:43;10.32;;;3.10;;
23990;SDS011;12205;50.600;4.608;2023-04-03T02:46:10;7.97;;;3.00;;
23990;SDS011;12205;50.600;4.608;2023-04-03T02:48:40;8.95;;;2.92;;
23990;SDS011;12205;50.600;4.608;2023-04-03T02:51:07;11.45;;;3.70;;
23990;SDS011;12205;50.600;4.608;2023-04-03T02:53:34;9.52;;;3.35;;
23990;SDS011;12205;50.600;4.608;2023-04-03T02:56:08;9.52;;;2.75;;
23990;SDS011;12205;50.600;4.608;2023-04-03T02:58:36;9.07;;;3.00;;
23990;SDS011;12205;50.600;4.608;2023-04-03T03:01:05;14.07;;;3.38;;
23990;SDS011;12205;50.600;4.608;2023-04-03T03:03:32;9.43;;;3.20;;
23990;SDS011;12205;50.600;4.608;2023-04-03T03:06:00;10.65;;;3.00;;
23990;SDS011;12205;50.600;4.608;2023-04-03T03:08:29;9.10;;;2.58;;
23990;SDS011;12205;50.600;4.608;2023-04-03T03:10:56;10.82;;;3.22;;
23990;SDS011;12205;50.600;4.608;2023-04-03T03:13:24;9.38;;;2.72;;
23990;SDS011;12205;50.600;4.608;2023-04-03T03:15:53;9.38;;;3.08;;
23990;SDS011;12205;50.600;4.608;2023-04-03T03:18:20;10.05;;;3.28;;
23990;SDS011;12205;50.600;4.608;2023-04-03T03:20:50;7.90;;;2.85;;
23990;SDS011;12205;50.600;4.608;2023-04-03T03:23:18;9.90;;;3.37;;
23990;SDS011;12205;50.600;4.608;2023-04-03T03:25:46;11.63;;;3.33;;
23990;SDS011;12205;50.600;4.608;2023-04-03T03:28:13;9.27;;;3.10;;
23990;SDS011;12205;50.600;4.608;2023-04-03T03:30:43;10.50;;;3.10;;
23990;SDS011;12205;50.600;4.608;2023-04-03T03:33:11;8.98;;;3.03;;
23990;SDS011;12205;50.600;4.608;2023-04-03T03:35:39;13.35;;;3.60;;
23990;SDS011;12205;50.600;4.608;2023-04-03T03:38:07;9.05;;;3.40;;
23990;SDS011;12205;50.600;4.608;2023-04-03T03:40:34;7.43;;;3.28;;
23990;SDS011;12205;50.600;4.608;2023-04-03T03:43:02;14.82;;;3.95;;
23990;SDS011;12205;50.600;4.608;2023-04-03T03:45:30;8.65;;;3.05;;
23990;SDS011;12205;50.600;4.608;2023-04-03T03:47:57;8.98;;;2.92;;
23990;SDS011;12205;50.600;4.608;2023-04-03T03:50:26;8.95;;;3.20;;
23990;SDS011;12205;50.600;4.608;2023-04-03T03:52:53;7.57;;;2.72;;
23990;SDS011;12205;50.600;4.608;2023-04-03T03:55:20;12.95;;;3.13;;
23990;SDS011;12205;50.600;4.608;2023-04-03T03:57:51;10.48;;;3.10;;
23990;SDS011;12205;50.600;4.608;2023-04-03T04:00:19;7.20;;;2.90;;
23990;SDS011;12205;50.600;4.608;2023-04-03T04:02:52;7.95;;;3.00;;
23990;SDS011;12205;50.600;4.608;2023-04-03T04:05:22;8.70;;;2.97;;
23990;SDS011;12205;50.600;4.608;2023-04-03T04:07:50;8.52;;;3.00;;
23990;SDS011;12205;50.600;4.608;2023-04-03T04:10:18;8.38;;;2.85;;
23990;SDS011;12205;50.600;4.608;2023-04-03T04:12:46;14.85;;;3.75;;
23990;SDS011;12205;50.600;4.608;2023-04-03T04:15:14;8.70;;;2.90;;
23990;SDS011;12205;50.600;4.608;2023-04-03T04:17:42;7.20;;;3.05;;
23990;SDS011;12205;50.600;4.608;2023-04-03T04:20:11;8.13;;;2.90;;
23990;SDS011;12205;50.600;4.608;2023-04-03T04:22:39;8.98;;;3.22;;
23990;SDS011;12205;50.600;4.608;2023-04-03T04:25:08;9.18;;;3.65;;
23990;SDS011;12205;50.600;4.608;2023-04-03T04:27:36;9.18;;;3.05;;
23990;SDS011;12205;50.600;4.608;2023-04-03T04:30:05;17.33;;;3.97;;
23990;SDS011;12205;50.600;4.608;2023-04-03T04:32:33;9.48;;;3.00;;
23990;SDS011;12205;50.600;4.608;2023-04-03T04:35:01;10.25;;;3.30;;
23990;SDS011;12205;50.600;4.608;2023-04-03T04:37:32;13.82;;;3.80;;
23990;SDS011;12205;50.600;4.608;2023-04-03T04:40:00;15.13;;;4.05;;
23990;SDS011;12205;50.600;4.608;2023-04-03T04:42:30;8.25;;;3.55;;
23990;SDS011;12205;50.600;4.608;2023-04-03T04:44:57;13.50;;;3.55;;
23990;SDS011;12205;50.600;4.608;2023-04-03T04:47:24;9.18;;;3.20;;
23990;SDS011;12205;50.600;4.608;2023-04-03T04:49:52;9.55;;;3.40;;
23990;SDS011;12205;50.600;4.608;2023-04-03T04:52:19;9.27;;;3.42;;
23990;SDS011;12205;50.600;4.608;2023-04-03T04:54:47;12.68;;;3.72;;
23990;SDS011;12205;50.600;4.608;2023-04-03T04:57:14;14.05;;;4.90;;
23990;SDS011;12205;50.600;4.608;2023-04-03T04:59:44;10.75;;;3.80;;
23990;SDS011;12205;50.600;4.608;2023-04-03T05:02:11;9.98;;;3.78;;
23990;SDS011;12205;50.600;4.608;2023-04-03T05:04:40;8.82;;;3.00;;
23990;SDS011;12205;50.600;4.608;2023-04-03T05:07:14;8.50;;;3.30;;
23990;SDS011;12205;50.600;4.608;2023-04-03T05:09:41;10.50;;;3.30;;
23990;SDS011;12205;50.600;4.608;2023-04-03T05:12:10;9.27;;;3.47;;
23990;SDS011;12205;50.600;4.608;2023-04-03T05:14:46;16.40;;;4.25;;
23990;SDS011;12205;50.600;4.608;2023-04-03T05:17:13;7.97;;;3.13;;
23990;SDS011;12205;50.600;4.608;2023-04-03T05:19:45;12.93;;;3.80;;
23990;SDS011;12205;50.600;4.608;2023-04-03T05:22:13;12.15;;;3.17;;
23990;SDS011;12205;50.600;4.608;2023-04-03T05:24:41;8.50;;;3.05;;
23990;SDS011;12205;50.600;4.608;2023-04-03T05:27:08;17.30;;;3.92;;
23990;SDS011;12205;50.600;4.608;2023-04-03T05:29:39;7.20;;;2.50;;
23990;SDS011;12205;50.600;4.608;2023-04-03T05:32:11;13.40;;;4.00;;
23990;SDS011;12205;50.600;4.608;2023-04-03T05:34:38;9.27;;;3.60;;
23990;SDS011;12205;50.600;4.608;2023-04-03T05:37:06;9.48;;;3.50;;
23990;SDS011;12205;50.600;4.608;2023-04-03T05:39:34;14.70;;;4.18;;
23990;SDS011;12205;50.600;4.608;2023-04-03T05:42:03;14.50;;;4.32;;
23990;SDS011;12205;50.600;4.608;2023-04-03T05:44:31;12.23;;;4.18;;
23990;SDS011;12205;50.600;4.608;2023-04-03T05:46:58;14.32;;;4.25;;
23990;SDS011;12205;50.600;4.608;2023-04-03T05:49:27;8.60;;;3.40;;
23990;SDS011;12205;50.600;4.608;2023-04-03T05:51:54;12.13;;;4.07;;
23990;SDS011;12205;50.600;4.608;2023-04-03T05:54:25;12.73;;;4.28;;
23990;SDS011;12205;50.600;4.608;2023-04-03T05:57:01;16.52;;;4.50;;
23990;SDS011;12205;50.600;4.608;2023-04-03T05:59:28;14.38;;;4.53;;
23990;SDS011;12205;50.600;4.608;2023-04-03T06:01:57;10.80;;;3.85;;
23990;SDS011;12205;50.600;4.608;2023-04-03T06:04:24;12.70;;;4.30;;
23990;SDS011;12205;50.600;4.608;2023-04-03T06:06:53;11.18;;;4.22;;
23990;SDS011;12205;50.600;4.608;2023-04-03T06:11:55;13.70;;;4.40;;
23990;SDS011;12205;50.600;4.608;2023-04-03T06:14:24;11.57;;;4.38;;
23990;SDS011;12205;50.600;4.608;2023-04-03T06:16:51;10.20;;;3.80;;
23990;SDS011;12205;50.600;4.608;2023-04-03T06:19:19;13.23;;;4.40;;
23990;SDS011;12205;50.600;4.608;2023-04-03T06:21:52;15.20;;;4.40;;
23990;SDS011;12205;50.600;4.608;2023-04-03T06:24:20;14.60;;;4.15;;
23990;SDS011;12205;50.600;4.608;2023-04-03T06:26:49;14.20;;;4.10;;
23990;SDS011;12205;50.600;4.608;2023-04-03T06:29:17;16.80;;;4.95;;
23990;SDS011;12205;50.600;4.608;2023-04-03T06:31:46;16.25;;;4.65;;
23990;SDS011;12205;50.600;4.608;2023-04-03T06:34:14;14.98;;;4.47;;
23990;SDS011;12205;50.600;4.608;2023-04-03T06:36:42;12.60;;;4.70;;
23990;SDS011;12205;50.600;4.608;2023-04-03T06:39:12;13.75;;;4.38;;
23990;SDS011;12205;50.600;4.608;2023-04-03T06:41:42;9.25;;;3.83;;
23990;SDS011;12205;50.600;4.608;2023-04-03T06:44:09;12.85;;;4.28;;
23990;SDS011;12205;50.600;4.608;2023-04-03T06:46:38;11.20;;;3.97;;
23990;SDS011;12205;50.600;4.608;2023-04-03T06:49:06;11.55;;;4.35;;
23990;SDS011;12205;50.600;4.608;2023-04-03T06:51:34;13.77;;;4.47;;
23990;SDS011;12205;50.600;4.608;2023-04-03T06:54:03;15.15;;;4.75;;
23990;SDS011;12205;50.600;4.608;2023-04-03T06:56:33;20.95;;;4.93;;
23990;SDS011;12205;50.600;4.608;2023-04-03T06:59:01;11.95;;;4.30;;
23990;SDS011;12205;50.600;4.608;2023-04-03T07:01:29;14.43;;;4.28;;
23990;SDS011;12205;50.600;4.608;2023-04-03T07:03:56;19.25;;;4.88;;
23990;SDS011;12205;50.600;4.608;2023-04-03T07:06:24;12.02;;;4.13;;
23990;SDS011;12205;50.600;4.608;2023-04-03T07:08:52;16.65;;;5.30;;
23990;SDS011;12205;50.600;4.608;2023-04-03T07:11:20;16.08;;;4.72;;
23990;SDS011;12205;50.600;4.608;2023-04-03T07:13:49;12.88;;;4.70;;
23990;SDS011;12205;50.600;4.608;2023-04-03T07:16:17;18.77;;;4.78;;
23990;SDS011;12205;50.600;4.608;2023-04-03T07:18:44;14.10;;;4.88;;
23990;SDS011;12205;50.600;4.608;2023-04-03T07:21:12;14.73;;;5.00;;
23990;SDS011;12205;50.600;4.608;2023-04-03T07:23:39;13.50;;;4.57;;
23990;SDS011;12205;50.600;4.608;2023-04-03T07:26:06;11.75;;;4.65;;
23990;SDS011;12205;50.600;4.608;2023-04-03T07:28:34;19.55;;;5.57;;
23990;SDS011;12205;50.600;4.608;2023-04-03T07:31:04;16.35;;;4.93;;
23990;SDS011;12205;50.600;4.608;2023-04-03T07:33:33;15.57;;;4.63;;
23990;SDS011;12205;50.600;4.608;2023-04-03T07:36:02;18.27;;;5.20;;
23990;SDS011;12205;50.600;4.608;2023-04-03T07:38:32;11.27;;;4.43;;
23990;SDS011;12205;50.600;4.608;2023-04-03T07:41:00;16.63;;;4.90;;
23990;SDS011;12205;50.600;4.608;2023-04-03T07:43:28;17.88;;;5.78;;
23990;SDS011;12205;50.600;4.608;2023-04-03T07:45:55;13.30;;;4.57;;
23990;SDS011;12205;50.600;4.608;2023-04-03T07:48:24;16.00;;;4.95;;
23990;SDS011;12205;50.600;4.608;2023-04-03T07:50:52;11.68;;;4.53;;
23990;SDS011;12205;50.600;4.608;2023-04-03T07:53:20;13.52;;;4.30;;
23990;SDS011;12205;50.600;4.608;2023-04-03T07:55:47;12.02;;;4.30;;
23990;SDS011;12205;50.600;4.608;2023-04-03T07:58:17;15.70;;;4.70;;
23990;SDS011;12205;50.600;4.608;2023-04-03T08:00:45;16.95;;;4.90;;
23990;SDS011;12205;50.600;4.608;2023-04-03T08:03:13;14.43;;;4.63;;
23990;SDS011;12205;50.600;4.608;2023-04-03T08:05:44;14.23;;;4.30;;
23990;SDS011;12205;50.600;4.608;2023-04-03T08:10:43;10.43;;;3.70;;
23990;SDS011;12205;50.600;4.608;2023-04-03T08:15:41;14.30;;;4.80;;
23990;SDS011;12205;50.600;4.608;2023-04-03T08:18:08;9.05;;;3.65;;
23990;SDS011;12205;50.600;4.608;2023-04-03T08:20:37;10.13;;;3.25;;
23990;SDS011;12205;50.600;4.608;2023-04-03T08:23:06;33.80;;;7.13;;
23990;SDS011;12205;50.600;4.608;2023-04-03T08:25:37;12.30;;;3.47;;
23990;SDS011;12205;50.600;4.608;2023-04-03T08:28:08;10.40;;;3.67;;
23990;SDS011;12205;50.600;4.608;2023-04-03T08:30:38;8.73;;;3.00;;
23990;SDS011;12205;50.600;4.608;2023-04-03T08:33:07;9.80;;;3.10;;
23990;SDS011;12205;50.600;4.608;2023-04-03T08:35:38;10.23;;;3.00;;
23990;SDS011;12205;50.600;4.608;2023-04-03T08:38:07;7.33;;;2.70;;
23990;SDS011;12205;50.600;4.608;2023-04-03T08:40:35;9.52;;;3.03;;
23990;SDS011;12205;50.600;4.608;2023-04-03T08:43:11;10.55;;;3.15;;
23990;SDS011;12205;50.600;4.608;2023-04-03T08:46:01;12.23;;;3.95;;
23990;SDS011;12205;50.600;4.608;2023-04-03T08:48:33;9.95;;;2.90;;
23990;SDS011;12205;50.600;4.608;2023-04-03T08:51:08;7.82;;;2.75;;
23990;SDS011;12205;50.600;4.608;2023-04-03T08:53:43;8.80;;;2.72;;
23990;SDS011;12205;50.600;4.608;2023-04-03T08:56:24;11.82;;;2.88;;
23990;SDS011;12205;50.600;4.608;2023-04-03T08:58:52;6.30;;;2.60;;
23990;SDS011;12205;50.600;4.608;2023-04-03T09:01:24;13.45;;;3.50;;
23990;SDS011;12205;50.600;4.608;2023-04-03T09:04:00;8.15;;;2.60;;
23990;SDS011;12205;50.600;4.608;2023-04-03T09:06:28;18.88;;;2.97;;
23990;SDS011;12205;50.600;4.608;2023-04-03T09:09:05;12.93;;;3.00;;
23990;SDS011;12205;50.600;4.608;2023-04-03T09:11:43;4.90;;;1.70;;
23990;SDS011;12205;50.600;4.608;2023-04-03T09:14:22;6.53;;;2.10;;
23990;SDS011;12205;50.600;4.608;2023-04-03T09:16:59;7.82;;;2.20;;
23990;SDS011;12205;50.600;4.608;2023-04-03T09:19:34;9.43;;;2.58;;
23990;SDS011;12205;50.600;4.608;2023-04-03T09:22:13;7.88;;;2.30;;
23990;SDS011;12205;50.600;4.608;2023-04-03T09:24:48;7.90;;;1.95;;
23990;SDS011;12205;50.600;4.608;2023-04-03T09:27:25;6.70;;;1.75;;
23990;SDS011;12205;50.600;4.608;2023-04-03T09:29:53;9.13;;;1.98;;
23990;SDS011;12205;50.600;4.608;2023-04-03T09:32:25;6.20;;;1.90;;
23990;SDS011;12205;50.600;4.608;2023-04-03T09:34:55;3.85;;;1.40;;
23990;SDS011;12205;50.600;4.608;2023-04-03T09:37:38;5.63;;;1.80;;
23990;SDS011;12205;50.600;4.608;2023-04-03T09:43:00;5.38;;;1.70;;
23990;SDS011;12205;50.600;4.608;2023-04-03T09:45:34;10.07;;;1.65;;
23990;SDS011;12205;50.600;4.608;2023-04-03T09:48:06;7.22;;;1.55;;
23990;SDS011;12205;50.600;4.608;2023-04-03T09:50:52;10.77;;;1.90;;
23990;SDS011;12205;50.600;4.608;2023-04-03T09:53:31;5.82;;;1.50;;
23990;SDS011;12205;50.600;4.608;2023-04-03T09:56:04;6.07;;;1.67;;
23990;SDS011;12205;50.600;4.608;2023-04-03T09:58:47;5.65;;;1.52;;
23990;SDS011;12205;50.600;4.608;2023-04-03T10:01:22;7.50;;;1.70;;
23990;SDS011;12205;50.600;4.608;2023-04-03T10:04:05;4.60;;;1.42;;
23990;SDS011;12205;50.600;4.608;2023-04-03T10:06:37;5.03;;;1.38;;
23990;SDS011;12205;50.600;4.608;2023-04-03T10:09:15;6.93;;;1.38;;
23990;SDS011;12205;50.600;4.608;2023-04-03T10:12:01;4.60;;;1.27;;
23990;SDS011;12205;50.600;4.608;2023-04-03T10:14:31;4.68;;;1.50;;
23990;SDS011;12205;50.600;4.608;2023-04-03T10:17:03;11.00;;;2.10;;
23990;SDS011;12205;50.600;4.608;2023-04-03T10:19:50;4.40;;;1.33;;
23990;SDS011;12205;50.600;4.608;2023-04-03T10:22:24;5.35;;;1.75;;
23990;SDS011;12205;50.600;4.608;2023-04-03T10:25:04;5.72;;;1.40;;
23990;SDS011;12205;50.600;4.608;2023-04-03T10:27:47;7.68;;;1.30;;
23990;SDS011;12205;50.600;4.608;2023-04-03T10:30:29;3.30;;;1.10;;
23990;SDS011;12205;50.600;4.608;2023-04-03T10:33:19;7.05;;;1.30;;
23990;SDS011;12205;50.600;4.608;2023-04-03T10:36:12;3.45;;;1.00;;
23990;SDS011;12205;50.600;4.608;2023-04-03T10:38:55;8.73;;;1.27;;
23990;SDS011;12205;50.600;4.608;2023-04-03T10:41:33;4.00;;;1.10;;
23990;SDS011;12205;50.600;4.608;2023-04-03T10:44:19;6.45;;;1.23;;
23990;SDS011;12205;50.600;4.608;2023-04-03T10:47:00;3.15;;;0.90;;
23990;SDS011;12205;50.600;4.608;2023-04-03T10:49:40;5.55;;;1.20;;
23990;SDS011;12205;50.600;4.608;2023-04-03T10:52:22;5.03;;;0.75;;
23990;SDS011;12205;50.600;4.608;2023-04-03T10:55:06;4.88;;;0.93;;
23990;SDS011;12205;50.600;4.608;2023-04-03T10:57:50;14.32;;;2.15;;
23990;SDS011;12205;50.600;4.608;2023-04-03T11:00:22;4.18;;;1.10;;
23990;SDS011;12205;50.600;4.608;2023-04-03T11:03:00;4.95;;;0.90;;
23990;SDS011;12205;50.600;4.608;2023-04-03T11:05:34;5.15;;;0.82;;
23990;SDS011;12205;50.600;4.608;2023-04-03T11:08:08;4.75;;;0.85;;
23990;SDS011;12205;50.600;4.608;2023-04-03T11:10:48;6.10;;;0.73;;
23990;SDS011;12205;50.600;4.608;2023-04-03T11:13:18;4.43;;;0.60;;
23990;SDS011;12205;50.600;4.608;2023-04-03T11:15:52;3.80;;;0.73;;
23990;SDS011;12205;50.600;4.608;2023-04-03T11:18:21;4.35;;;0.70;;
23990;SDS011;12205;50.600;4.608;2023-04-03T11:20:57;2.08;;;0.60;;
23990;SDS011;12205;50.600;4.608;2023-04-03T11:23:30;4.95;;;0.55;;
23990;SDS011;12205;50.600;4.608;2023-04-03T11:26:07;3.60;;;0.68;;
23990;SDS011;12205;50.600;4.608;2023-04-03T11:28:37;4.30;;;0.85;;
23990;SDS011;12205;50.600;4.608;2023-04-03T11:31:12;2.78;;;0.70;;
23990;SDS011;12205;50.600;4.608;2023-04-03T11:33:57;2.90;;;0.52;;
23990;SDS011;12205;50.600;4.608;2023-04-03T11:36:38;2.28;;;0.70;;
23990;SDS011;12205;50.600;4.608;2023-04-03T11:39:16;3.53;;;0.65;;
23990;SDS011;12205;50.600;4.608;2023-04-03T11:41:50;3.47;;;0.68;;
23990;SDS011;12205;50.600;4.608;2023-04-03T11:44:29;4.22;;;0.73;;
23990;SDS011;12205;50.600;4.608;2023-04-03T11:47:03;2.08;;;0.40;;
23990;SDS011;12205;50.600;4.608;2023-04-03T11:52:57;2.80;;;0.47;;
23990;SDS011;12205;50.600;4.608;2023-04-03T11:55:43;2.25;;;0.32;;
23990;SDS011;12205;50.600;4.608;2023-04-03T11:58:19;1.67;;;0.43;;
23990;SDS011;12205;50.600;4.608;2023-04-03T12:00:49;4.05;;;0.52;;
23990;SDS011;12205;50.600;4.608;2023-04-03T12:12:43;3.17;;;0.50;;
23990;SDS011;12205;50.600;4.608;2023-04-03T12:21:23;3.88;;;0.40;;
23990;SDS011;12205;50.600;4.608;2023-04-03T12:24:46;4.95;;;0.55;;
23990;SDS011;12205;50.600;4.608;2023-04-03T12:37:14;0.77;;;0.20;;
23990;SDS011;12205;50.600;4.608;2023-04-03T12:40:08;2.17;;;0.32;;
23990;SDS011;12205;50.600;4.608;2023-04-03T12:42:57;2.08;;;0.30;;
23990;SDS011;12205;50.600;4.608;2023-04-03T12:45:43;2.55;;;0.30;;
23990;SDS011;12205;50.600;4.608;2023-04-03T12:48:18;2.03;;;0.40;;
23990;SDS011;12205;50.600;4.608;2023-04-03T12:50:51;3.33;;;0.40;;
23990;SDS011;12205;50.600;4.608;2023-04-03T12:53:21;1.40;;;0.30;;
23990;SDS011;12205;50.600;4.608;2023-04-03T12:55:53;6.75;;;0.40;;
23990;SDS011;12205;50.600;4.608;2023-04-03T12:58:22;2.50;;;0.35;;
23990;SDS011;12205;50.600;4.608;2023-04-03T13:00:58;5.22;;;0.45;;
23990;SDS011;12205;50.600;4.608;2023-04-03T13:03:28;2.33;;;0.40;;
23990;SDS011;12205;50.600;4.608;2023-04-03T13:05:59;4.05;;;0.35;;
23990;SDS011;12205;50.600;4.608;2023-04-03T13:08:31;2.30;;;0.40;;
23990;SDS011;12205;50.600;4.608;2023-04-03T13:10:59;1.15;;;0.30;;
23990;SDS011;12205;50.600;4.608;2023-04-03T13:13:30;2.40;;;0.30;;
23990;SDS011;12205;50.600;4.608;2023-04-03T13:15:58;1.35;;;0.30;;
23990;SDS011;12205;50.600;4.608;2023-04-03T13:18:27;1.83;;;0.40;;
23990;SDS011;12205;50.600;4.608;2023-04-03T13:20:58;2.65;;;0.40;;
23990;SDS011;12205;50.600;4.608;2023-04-03T13:23:32;1.45;;;0.25;;
23990;SDS011;12205;50.600;4.608;2023-04-03T13:26:04;2.20;;;0.30;;
23990;SDS011;12205;50.600;4.608;2023-04-03T13:28:33;2.10;;;0.20;;
23990;SDS011;12205;50.600;4.608;2023-04-03T13:31:04;1.70;;;0.38;;
23990;SDS011;12205;50.600;4.608;2023-04-03T13:33:43;1.40;;;0.25;;
23990;SDS011;12205;50.600;4.608;2023-04-03T13:36:22;1.50;;;0.30;;
23990;SDS011;12205;50.600;4.608;2023-04-03T13:39:02;2.53;;;0.30;;
23990;SDS011;12205;50.600;4.608;2023-04-03T13:41:34;1.50;;;0.35;;
23990;SDS011;12205;50.600;4.608;2023-04-03T13:44:16;2.22;;;0.30;;
23990;SDS011;12205;50.600;4.608;2023-04-03T13:46:54;2.90;;;0.47;;
23990;SDS011;12205;50.600;4.608;2023-04-03T13:49:27;1.35;;;0.17;;
23990;SDS011;12205;50.600;4.608;2023-04-03T13:51:59;3.58;;;0.45;;
23990;SDS011;12205;50.600;4.608;2023-04-03T13:54:33;0.98;;;0.20;;
23990;SDS011;12205;50.600;4.608;2023-04-03T13:57:03;1.95;;;0.35;;
23990;SDS011;12205;50.600;4.608;2023-04-03T13:59:40;4.97;;;0.50;;
23990;SDS011;12205;50.600;4.608;2023-04-03T14:02:15;1.02;;;0.30;;
23990;SDS011;12205;50.600;4.608;2023-04-03T14:04:47;2.65;;;0.40;;
23990;SDS011;12205;50.600;4.608;2023-04-03T14:07:21;2.60;;;0.30;;
23990;SDS011;12205;50.600;4.608;2023-04-03T14:09:51;2.78;;;0.40;;
23990;SDS011;12205;50.600;4.608;2023-04-03T14:12:21;2.58;;;0.30;;
23990;SDS011;12205;50.600;4.608;2023-04-03T14:14:53;0.90;;;0.25;;
23990;SDS011;12205;50.600;4.608;2023-04-03T14:17:22;1.83;;;0.20;;
23990;SDS011;12205;50.600;4.608;2023-04-03T14:19:53;1.83;;;0.30;;
23990;SDS011;12205;50.600;4.608;2023-04-03T14:22:23;1.63;;;0.40;;
23990;SDS011;12205;50.600;4.608;2023-04-03T14:24:55;2.80;;;0.40;;
23990;SDS011;12205;50.600;4.608;2023-04-03T14:27:24;1.02;;;0.28;;
23990;SDS011;12205;50.600;4.608;2023-04-03T14:29:54;1.42;;;0.47;;
23990;SDS011;12205;50.600;4.608;2023-04-03T14:32:23;3.50;;;0.67;;
23990;SDS011;12205;50.600;4.608;2023-04-03T14:34:52;2.55;;;0.40;;
23990;SDS011;12205;50.600;4.608;2023-04-03T14:37:21;3.17;;;0.35;;
23990;SDS011;12205;50.600;4.608;2023-04-03T14:39:53;1.23;;;0.20;;
23990;SDS011;12205;50.600;4.608;2023-04-03T14:44:54;2.27;;;0.33;;
23990;SDS011;12205;50.600;4.608;2023-04-03T14:47:21;1.95;;;0.30;;
23990;SDS011;12205;50.600;4.608;2023-04-03T14:49:52;3.60;;;0.40;;
23990;SDS011;12205;50.600;4.608;2023-04-03T14:52:21;1.70;;;0.30;;
23990;SDS011;12205;50.600;4.608;2023-04-03T14:54:53;2.72;;;0.30;;
23990;SDS011;12205;50.600;4.608;2023-04-03T14:57:23;2.65;;;0.50;;
23990;SDS011;12205;50.600;4.608;2023-04-03T14:59:53;2.67;;;0.30;;
23990;SDS011;12205;50.600;4.608;2023-04-03T15:02:24;2.88;;;0.30;;
23990;SDS011;12205;50.600;4.608;2023-04-03T15:04:54;3.00;;;0.30;;
23990;SDS011;12205;50.600;4.608;2023-04-03T15:07:23;3.53;;;0.40;;
23990;SDS011;12205;50.600;4.608;2023-04-03T15:09:56;1.83;;;0.50;;
23990;SDS011;12205;50.600;4.608;2023-04-03T15:12:23;3.72;;;0.30;;
23990;SDS011;12205;50.600;4.608;2023-04-03T15:14:51;3.30;;;0.70;;
23990;SDS011;12205;50.600;4.608;2023-04-03T15:17:19;2.72;;;0.45;;
23990;SDS011;12205;50.600;4.608;2023-04-03T15:22:16;2.20;;;0.35;;
23990;SDS011;12205;50.600;4.608;2023-04-03T15:24:45;3.80;;;0.33;;
23990;SDS011;12205;50.600;4.608;2023-04-03T15:27:14;3.67;;;0.35;;
23990;SDS011;12205;50.600;4.608;2023-04-03T15:29:42;2.35;;;0.30;;
23990;SDS011;12205;50.600;4.608;2023-04-03T15:32:11;1.85;;;0.25;;
23990;SDS011;12205;50.600;4.608;2023-04-03T15:34:39;1.90;;;0.40;;
23990;SDS011;12205;50.600;4.608;2023-04-03T15:37:07;3.88;;;0.43;;
23990;SDS011;12205;50.600;4.608;2023-04-03T15:39:34;2.60;;;0.30;;
23990;SDS011;12205;50.600;4.608;2023-04-03T15:42:01;2.53;;;0.43;;
23990;SDS011;12205;50.600;4.608;2023-04-03T15:44:32;1.80;;;0.30;;
23990;SDS011;12205;50.600;4.608;2023-04-03T15:47:01;1.85;;;0.40;;
23990;SDS011;12205;50.600;4.608;2023-04-03T15:49:29;3.10;;;0.50;;
23990;SDS011;12205;50.600;4.608;2023-04-03T15:51:58;3.33;;;0.40;;
23990;SDS011;12205;50.600;4.608;2023-04-03T15:54:26;2.42;;;0.47;;
23990;SDS011;12205;50.600;4.608;2023-04-03T15:56:54;3.03;;;0.60;;
23990;SDS011;12205;50.600;4.608;2023-04-03T15:59:22;2.97;;;0.50;;